Terminal Aerodrome Forecast
Issued by NWS

Home | Current Version | Previous Version | Graphics & Text | Print | Product List | Glossary Off
Versions: 1 2 3 4 5 6 7 8 9 10 11 12 13 14 15 16 17 18 19 20 21 22 23 24 25 26 27 28 29 30

534
FTUS43 KDDC 072320
TAFGCK
TAF
KGCK 072320Z 0800/0824 02013KT P6SM OVC013
     FM080100 01009KT P6SM BKN060
     FM082000 36006KT P6SM FEW200=

USA.gov is the U.S. government's official web portal to all federal, state and local government web resources and services.